createdAt,value
2023-12-20T00:01:01.422Z,100611.16
2023-12-20T00:03:27.889Z,100606.66
2023-12-20T00:05:54.645Z,100606.50
2023-12-20T00:08:21.066Z,100603.81
2023-12-20T00:10:47.475Z,100613.38
2023-12-20T00:13:13.960Z,100616.75
2023-12-20T00:15:40.491Z,100620.13
2023-12-20T00:18:07.068Z,100617.28
2023-12-20T00:20:33.600Z,100605.59
2023-12-20T00:23:00.081Z,100608.28
2023-12-20T00:25:26.483Z,100620.66
2023-12-20T00:27:53.630Z,100615.47
2023-12-20T00:30:20.367Z,100613.63
2023-12-20T00:32:49.564Z,100613.78
2023-12-20T00:35:17.196Z,100618.28
2023-12-20T00:37:44.557Z,100620.13
2023-12-20T00:40:11.764Z,100620.97
2023-12-20T00:42:38.354Z,100616.63
2023-12-20T00:45:05.836Z,100626.63
2023-12-20T00:47:32.494Z,100619.56
2023-12-20T00:49:59.380Z,100619.56
2023-12-20T00:52:26.225Z,100637.66
2023-12-20T00:54:53.416Z,100625.25
2023-12-20T00:57:20.004Z,100615.53
2023-12-20T00:59:46.436Z,100616.81
2023-12-20T01:02:12.875Z,100610.94
2023-12-20T01:04:39.410Z,100610.41
2023-12-20T01:07:05.932Z,100596.63
2023-12-20T01:09:32.378Z,100599.91
2023-12-20T01:11:58.966Z,100595.31
2023-12-20T01:14:25.631Z,100600.44
2023-12-20T01:16:52.066Z,100600.16
2023-12-20T01:19:18.589Z,100606.25
2023-12-20T01:21:45.092Z,100603.38
2023-12-20T01:24:11.807Z,100615.50
2023-12-20T01:26:38.284Z,100617.78
2023-12-20T01:29:04.726Z,100620.75
2023-12-20T01:31:31.281Z,100605.84
2023-12-20T01:33:57.779Z,100606.09
2023-12-20T01:36:24.300Z,100608.13
2023-12-20T01:38:50.778Z,100601.22
2023-12-20T01:41:17.332Z,100602.19
2023-12-20T01:43:50.784Z,100589.97
2023-12-20T01:46:18.687Z,100601.78
2023-12-20T01:48:45.548Z,100608.44
2023-12-20T01:51:12.240Z,100604.38
2023-12-20T01:53:42.004Z,100607.34
2023-12-20T01:56:09.613Z,100601.59
2023-12-20T01:58:44.330Z,100601.00
2023-12-20T02:01:11.540Z,100609.47
2023-12-20T02:03:38.323Z,100602.72
2023-12-20T02:06:06.340Z,100605.84
2023-12-20T02:08:32.802Z,100605.25
2023-12-20T02:10:59.369Z,100596.00
2023-12-20T02:13:27.961Z,100600.78
2023-12-20T02:15:55.946Z,100593.06
2023-12-20T02:18:23.103Z,100594.91
2023-12-20T02:20:49.556Z,100594.03
2023-12-20T02:23:16.119Z,100592.25
2023-12-20T02:25:42.695Z,100593.91
2023-12-20T02:28:09.520Z,100590.09
2023-12-20T02:30:35.966Z,100594.16
2023-12-20T02:33:04.894Z,100599.25
2023-12-20T02:35:31.312Z,100599.91
2023-12-20T02:37:57.680Z,100604.00
2023-12-20T02:40:24.192Z,100593.00
2023-12-20T02:42:50.678Z,100591.03
2023-12-20T02:45:17.143Z,100581.72
2023-12-20T02:47:43.925Z,100588.47
2023-12-20T02:50:10.586Z,100589.22
2023-12-20T02:52:37.075Z,100581.91
2023-12-20T02:55:03.693Z,100583.44
2023-12-20T02:57:30.190Z,100577.09
2023-12-20T02:59:56.573Z,100573.41
2023-12-20T03:02:22.971Z,100570.75
2023-12-20T03:04:49.478Z,100567.22
2023-12-20T03:07:15.922Z,100563.44
2023-12-20T03:09:54.111Z,100559.91
2023-12-20T03:12:28.761Z,100567.78
2023-12-20T03:14:55.365Z,100571.31
2023-12-20T03:17:22.119Z,100571.31
2023-12-20T03:19:48.558Z,100568.63
2023-12-20T03:22:15.062Z,100563.44
2023-12-20T03:24:41.532Z,100561.88
2023-12-20T03:27:08.030Z,100563.84
2023-12-20T03:29:34.441Z,100562.47
2023-12-20T03:32:00.923Z,100565.44
2023-12-20T03:34:28.099Z,100552.31
2023-12-20T03:36:54.562Z,100543.63
2023-12-20T03:39:20.992Z,100545.59
2023-12-20T03:41:47.510Z,100543.94
2023-12-20T03:44:13.923Z,100546.59
2023-12-20T03:46:40.350Z,100541.41
2023-12-20T03:49:06.768Z,100535.22
2023-12-20T03:51:33.191Z,100541.41
2023-12-20T03:53:59.612Z,100535.34
2023-12-20T03:56:26.013Z,100551.25
2023-12-20T03:58:52.727Z,100540.56
2023-12-20T04:01:19.247Z,100540.56
2023-12-20T04:03:45.741Z,100543.94
2023-12-20T04:06:18.051Z,100548.13
2023-12-20T04:08:44.560Z,100542.78
2023-12-20T04:11:10.980Z,100548.81
2023-12-20T04:13:37.446Z,100546.00
2023-12-20T04:16:04.375Z,100537.00
2023-12-20T04:18:30.877Z,100534.19
2023-12-20T04:20:57.427Z,100537.59
2023-12-20T04:23:23.838Z,100532.25
2023-12-20T04:25:50.284Z,100543.78
2023-12-20T04:28:16.829Z,100534.06
2023-12-20T04:30:43.658Z,100542.94
2023-12-20T04:33:10.318Z,100548.38
2023-12-20T04:35:36.836Z,100541.22
2023-12-20T04:38:03.375Z,100543.91
2023-12-20T04:40:29.822Z,100544.75
2023-12-20T04:42:56.314Z,100535.75
2023-12-20T04:45:23.085Z,100536.47
2023-12-20T04:47:49.768Z,100534.44
2023-12-20T04:50:16.858Z,100529.81
2023-12-20T04:52:43.446Z,100527.00
2023-12-20T04:55:10.094Z,100538.38
2023-12-20T04:57:36.641Z,100542.56
2023-12-20T05:00:03.914Z,100541.59
2023-12-20T05:02:30.386Z,100543.13
2023-12-20T05:04:56.824Z,100536.66
2023-12-20T05:07:23.376Z,100529.47
2023-12-20T05:09:50.022Z,100517.63
2023-12-20T05:12:16.505Z,100523.69
2023-12-20T05:14:42.901Z,100522.69
2023-12-20T05:17:09.371Z,100524.38
2023-12-20T05:19:36.537Z,100532.22
2023-12-20T05:22:03.607Z,100525.88
2023-12-20T05:24:30.086Z,100532.09
2023-12-20T05:26:56.542Z,100531.94
2023-12-20T05:29:23.092Z,100533.63
2023-12-20T05:31:49.519Z,100531.63
2023-12-20T05:34:16.175Z,100525.44
2023-12-20T05:36:42.679Z,100517.28
2023-12-20T05:39:09.108Z,100521.50
2023-12-20T05:41:35.631Z,100527.69
2023-12-20T05:44:02.045Z,100518.66
2023-12-20T05:46:28.628Z,100518.50
2023-12-20T05:48:55.198Z,100516.66
2023-12-20T05:51:21.635Z,100521.88
2023-12-20T05:53:48.083Z,100527.06
2023-12-20T05:56:14.493Z,100527.94
2023-12-20T05:58:41.241Z,100524.25
2023-12-20T06:01:09.787Z,100527.75
2023-12-20T06:03:36.529Z,100524.94
2023-12-20T06:06:15.880Z,100521.28
2023-12-20T06:08:44.606Z,100519.44
2023-12-20T06:11:11.138Z,100513.09
2023-12-20T06:13:37.615Z,100523.81
2023-12-20T06:16:06.468Z,100521.13
2023-12-20T06:18:32.993Z,100521.97
2023-12-20T06:20:59.400Z,100511.28
2023-12-20T06:23:25.872Z,100516.63
2023-12-20T06:25:52.331Z,100511.09
2023-12-20T06:28:18.743Z,100514.63
2023-12-20T06:30:45.480Z,100518.28
2023-12-20T06:33:12.691Z,100516.44
2023-12-20T06:35:39.270Z,100512.94
2023-12-20T06:38:05.691Z,100514.63
2023-12-20T06:40:32.261Z,100517.31
2023-12-20T06:43:05.349Z,100509.44
2023-12-20T06:45:38.697Z,100498.59
2023-12-20T06:48:05.688Z,100495.91
2023-12-20T06:50:32.181Z,100495.03
2023-12-20T06:52:58.634Z,100488.72
2023-12-20T06:55:25.150Z,100493.22
2023-12-20T06:57:51.571Z,100491.41
2023-12-20T07:00:18.890Z,100497.59
2023-12-20T07:02:45.315Z,100485.03
2023-12-20T07:05:11.766Z,100496.56
2023-12-20T07:07:38.351Z,100492.94
2023-12-20T07:10:05.312Z,100489.25
2023-12-20T07:12:31.767Z,100480.25
2023-12-20T07:14:58.234Z,100497.97
2023-12-20T07:17:24.669Z,100482.75
2023-12-20T07:19:51.313Z,100491.47
2023-12-20T07:22:17.837Z,100487.78
2023-12-20T07:24:44.256Z,100491.34
2023-12-20T07:27:10.709Z,100483.31
2023-12-20T07:29:37.142Z,100484.13
2023-12-20T07:32:03.681Z,100491.03
2023-12-20T07:34:30.221Z,100501.72
2023-12-20T07:36:56.692Z,100489.00
2023-12-20T07:39:23.198Z,100489.00
2023-12-20T07:41:49.658Z,100499.56
2023-12-20T07:44:16.824Z,100492.56
2023-12-20T07:46:43.279Z,100480.84
2023-12-20T07:49:11.370Z,100484.34
2023-12-20T07:51:37.970Z,100488.72
2023-12-20T07:54:05.904Z,100498.44
2023-12-20T07:56:32.354Z,100497.41
2023-12-20T07:59:00.777Z,100492.06
2023-12-20T08:01:27.511Z,100491.09
2023-12-20T08:03:54.177Z,100495.44
2023-12-20T08:06:21.107Z,100484.75
2023-12-20T08:08:55.364Z,100489.13
2023-12-20T08:11:25.479Z,100487.09
2023-12-20T08:13:52.329Z,100483.59
2023-12-20T08:16:18.980Z,100481.44
2023-12-20T08:18:45.672Z,100477.91
2023-12-20T08:21:12.729Z,100477.78
2023-12-20T08:23:39.163Z,100491.00
2023-12-20T08:26:09.008Z,100481.16
2023-12-20T08:28:35.811Z,100482.00
2023-12-20T08:31:02.424Z,100478.31
2023-12-20T08:33:29.074Z,100481.81
2023-12-20T08:35:55.518Z,100487.88
2023-12-20T08:38:21.948Z,100486.88
2023-12-20T08:40:49.582Z,100477.84
2023-12-20T08:43:16.051Z,100482.19
2023-12-20T08:45:42.745Z,100479.53
2023-12-20T08:48:09.934Z,100462.47
2023-12-20T08:50:37.819Z,100462.16
2023-12-20T08:53:04.515Z,100449.78
2023-12-20T08:55:32.310Z,100461.16
2023-12-20T08:57:58.860Z,100464.69
2023-12-20T09:00:28.561Z,100440.59
2023-12-20T09:02:55.883Z,100458.16
2023-12-20T09:05:22.526Z,100450.81
2023-12-20T09:07:49.331Z,100440.09
2023-12-20T09:10:18.472Z,100455.19
2023-12-20T09:12:48.262Z,100459.53
2023-12-20T09:15:14.838Z,100442.47
2023-12-20T09:17:42.782Z,100421.75
2023-12-20T09:20:10.096Z,100435.13
2023-12-20T09:22:36.953Z,100439.50
2023-12-20T09:25:04.060Z,100442.84
2023-12-20T09:27:30.667Z,100430.47
2023-12-20T09:29:57.108Z,100428.63
2023-12-20T09:32:23.534Z,100440.16
2023-12-20T09:34:50.310Z,100425.09
2023-12-20T09:37:16.897Z,100422.28
2023-12-20T09:39:43.364Z,100436.50
2023-12-20T09:42:13.095Z,100440.03
2023-12-20T09:44:44.685Z,100436.34
2023-12-20T09:47:12.999Z,100412.09
2023-12-20T09:49:39.527Z,100436.03
2023-12-20T09:52:07.907Z,100441.41
2023-12-20T09:54:34.430Z,100433.50
2023-12-20T09:57:00.825Z,100448.56
2023-12-20T09:59:27.257Z,100451.09
2023-12-20T10:01:58.429Z,100448.25
2023-12-20T10:04:30.250Z,100466.16
2023-12-20T10:06:58.113Z,100460.81
2023-12-20T10:09:25.115Z,100454.63
2023-12-20T10:11:55.448Z,100460.66
2023-12-20T10:14:23.990Z,100462.66
2023-12-20T10:16:51.088Z,100455.31
2023-12-20T10:19:19.396Z,100453.59
2023-12-20T10:21:46.855Z,100459.97
2023-12-20T10:24:18.933Z,100458.97
2023-12-20T10:26:45.390Z,100458.00
2023-12-20T10:29:11.784Z,100464.19
2023-12-20T10:31:39.901Z,100462.34
2023-12-20T10:34:06.739Z,100459.66
2023-12-20T10:36:34.569Z,100451.63
2023-12-20T10:39:02.352Z,100456.13
2023-12-20T10:41:31.024Z,100438.22
2023-12-20T10:44:00.233Z,100434.56
2023-12-20T10:46:31.703Z,100452.31
2023-12-20T10:48:58.629Z,100436.25
2023-12-20T10:51:27.404Z,100427.19
2023-12-20T10:53:54.682Z,100421.84
2023-12-20T10:56:22.380Z,100434.41
2023-12-20T10:58:50.413Z,100425.53
2023-12-20T11:01:22.222Z,100413.16
2023-12-20T11:03:53.912Z,100415.81
2023-12-20T11:06:32.249Z,100411.31
2023-12-20T11:09:26.265Z,100407.78
2023-12-20T11:12:01.798Z,100401.44
2023-12-20T11:14:35.946Z,100387.03
2023-12-20T11:17:14.822Z,100397.28
2023-12-20T11:19:53.470Z,100402.31
2023-12-20T11:22:21.592Z,100391.44
2023-12-20T11:24:49.565Z,100387.75
2023-12-20T11:27:16.077Z,100382.94
2023-12-20T11:29:42.905Z,100391.47
2023-12-20T11:32:30.033Z,100381.13
2023-12-20T11:34:59.453Z,100387.00
2023-12-20T11:37:52.404Z,100383.16
2023-12-20T11:40:19.722Z,100386.69
2023-12-20T11:42:49.584Z,100381.16
2023-12-20T11:45:20.724Z,100371.81
2023-12-20T11:47:48.993Z,100363.44
2023-12-20T11:50:15.778Z,100363.94
2023-12-20T11:52:42.308Z,100360.09
2023-12-20T11:55:08.854Z,100349.91
2023-12-20T11:57:35.359Z,100343.34
2023-12-20T12:00:01.879Z,100373.53
2023-12-20T12:02:28.360Z,100370.69
2023-12-20T12:04:54.983Z,100351.94
2023-12-20T12:07:21.545Z,100367.81
2023-12-20T12:09:48.202Z,100363.47
2023-12-20T12:12:15.438Z,100359.13
2023-12-20T12:14:41.909Z,100364.78
2023-12-20T12:17:15.200Z,100368.50
2023-12-20T12:19:43.008Z,100375.00
2023-12-20T12:22:17.843Z,100395.94
2023-12-20T12:24:45.376Z,100408.16
2023-12-20T12:27:13.804Z,100397.41
2023-12-20T12:29:40.830Z,100398.50
2023-12-20T12:32:09.581Z,100394.25
2023-12-20T12:34:37.180Z,100392.88
2023-12-20T12:37:05.129Z,100389.63
2023-12-20T12:39:31.600Z,100388.88
2023-12-20T12:41:58.425Z,100399.00
2023-12-20T12:44:26.075Z,100397.25
2023-12-20T12:46:54.428Z,100394.53
2023-12-20T12:49:24.844Z,100385.59
2023-12-20T12:51:52.344Z,100390.88
2023-12-20T12:54:19.273Z,100378.13
2023-12-20T12:56:46.145Z,100369.72
2023-12-20T12:59:12.885Z,100369.34
2023-12-20T13:01:40.316Z,100364.47
2023-12-20T13:04:11.626Z,100379.97
2023-12-20T13:06:39.108Z,100370.44
2023-12-20T13:09:06.138Z,100360.72
2023-12-20T13:11:32.911Z,100367.91
2023-12-20T13:13:59.538Z,100373.25
2023-12-20T13:16:26.293Z,100360.56
2023-12-20T13:18:53.004Z,100363.25
2023-12-20T13:21:19.553Z,100372.78
2023-12-20T13:23:45.983Z,100372.63
2023-12-20T13:26:12.389Z,100356.25
2023-12-20T13:28:38.938Z,100360.47
2023-12-20T13:31:05.477Z,100368.34
2023-12-20T13:33:32.025Z,100367.19
2023-12-20T13:35:59.351Z,100354.53
2023-12-20T13:38:25.998Z,100356.03
2023-12-20T13:40:52.453Z,100352.22
2023-12-20T13:43:22.068Z,100344.03
2023-12-20T13:45:49.443Z,100351.06
2023-12-20T13:48:15.907Z,100345.72
2023-12-20T13:50:42.388Z,100351.06
2023-12-20T13:53:08.802Z,100344.03
2023-12-20T13:55:35.325Z,100346.69
2023-12-20T13:58:02.169Z,100346.56
2023-12-20T14:00:28.766Z,100343.72
2023-12-20T14:02:55.196Z,100348.09
2023-12-20T14:05:24.834Z,100341.72
2023-12-20T14:07:53.803Z,100343.44
2023-12-20T14:10:20.363Z,100340.06
2023-12-20T14:12:46.849Z,100335.41
2023-12-20T14:15:14.363Z,100338.22
2023-12-20T14:17:43.411Z,100339.03
2023-12-20T14:20:10.526Z,100324.84
2023-12-20T14:22:37.376Z,100331.84
2023-12-20T14:25:04.273Z,100321.16
2023-12-20T14:27:30.932Z,100311.31
2023-12-20T14:29:57.638Z,100316.66
2023-12-20T14:32:24.983Z,100315.81
2023-12-20T14:34:51.641Z,100320.00
2023-12-20T14:37:18.612Z,100313.00
2023-12-20T14:39:45.060Z,100317.50
2023-12-20T14:42:14.639Z,100307.63
2023-12-20T14:44:41.992Z,100323.69
2023-12-20T14:47:08.756Z,100330.06
2023-12-20T14:49:35.828Z,100330.06
2023-12-20T14:52:03.085Z,100330.06
2023-12-20T14:54:29.529Z,100330.19
2023-12-20T14:56:56.832Z,100322.16
2023-12-20T14:59:31.446Z,100319.50
2023-12-20T15:01:58.057Z,100312.47
2023-12-20T15:04:29.706Z,100319.50
2023-12-20T15:29:32.615Z,100282.94
2023-12-20T15:31:59.121Z,100288.84
2023-12-20T15:34:25.673Z,100291.34
2023-12-20T15:36:52.256Z,100280.41
2023-12-20T15:39:18.768Z,100291.84
2023-12-20T15:41:45.188Z,100287.72
2023-12-20T15:44:11.619Z,100287.25
2023-12-20T15:46:38.094Z,100278.06
2023-12-20T15:49:04.835Z,100269.72
2023-12-20T15:51:31.284Z,100264.19
2023-12-20T15:53:58.514Z,100258.56
2023-12-20T15:56:25.028Z,100269.09
2023-12-20T15:58:53.223Z,100259.91
2023-12-20T16:01:19.842Z,100265.94
2023-12-20T16:03:51.254Z,100268.28
2023-12-20T16:06:23.198Z,100263.44
2023-12-20T16:08:49.723Z,100261.47
2023-12-20T16:11:16.909Z,100276.38
2023-12-20T16:13:43.357Z,100270.69
2023-12-20T16:16:10.556Z,100274.03
2023-12-20T16:18:37.039Z,100277.41
2023-12-20T16:21:04.266Z,100286.13
2023-12-20T16:23:31.390Z,100279.63
2023-12-20T16:25:58.863Z,100271.41
2023-12-20T16:28:25.625Z,100282.81
2023-12-20T16:30:52.749Z,100287.16
2023-12-20T16:33:19.645Z,100285.16
2023-12-20T16:35:46.233Z,100270.75
2023-12-20T16:38:12.746Z,100268.75
2023-12-20T16:40:39.235Z,100249.03
2023-12-20T16:43:05.766Z,100253.38
2023-12-20T16:45:32.272Z,100255.91
2023-12-20T16:47:58.791Z,100241.38
2023-12-20T16:50:25.396Z,100252.09
2023-12-20T16:52:52.781Z,100248.25
2023-12-20T16:55:19.788Z,100254.25
2023-12-20T16:57:46.977Z,100248.91
2023-12-20T17:00:14.743Z,100249.75
2023-12-20T17:02:41.409Z,100245.06
2023-12-20T17:05:08.534Z,100238.72
2023-12-20T17:07:35.012Z,100225.97
2023-12-20T17:10:01.793Z,100232.19
2023-12-20T17:12:28.279Z,100223.97
2023-12-20T17:14:54.851Z,100216.78
2023-12-20T17:17:21.394Z,100216.63
2023-12-20T17:19:48.095Z,100214.78
2023-12-20T17:22:14.816Z,100203.09
2023-12-20T17:24:41.252Z,100213.63
2023-12-20T17:27:07.789Z,100223.16
2023-12-20T17:29:34.170Z,100215.13
2023-12-20T17:32:00.701Z,100212.31
2023-12-20T17:34:27.764Z,100207.78
2023-12-20T17:36:54.318Z,100203.25
2023-12-20T17:39:21.278Z,100199.59
2023-12-20T17:41:47.810Z,100191.56
2023-12-20T17:44:15.545Z,100193.22
2023-12-20T17:46:42.121Z,100183.53
2023-12-20T17:49:09.365Z,100190.53
2023-12-20T17:51:35.873Z,100174.47
2023-12-20T17:54:04.612Z,100170.78
2023-12-20T17:56:31.408Z,100160.06
2023-12-20T17:58:57.909Z,100164.44
2023-12-20T18:01:24.528Z,100154.72
2023-12-20T18:03:51.522Z,100156.41
2023-12-20T18:06:18.156Z,100147.34
2023-12-20T18:08:44.756Z,100158.06
2023-12-20T18:11:11.213Z,100147.19
2023-12-20T18:13:37.674Z,100122.22
2023-12-20T18:16:10.384Z,100123.09
2023-12-20T18:18:37.980Z,100130.13
2023-12-20T18:21:05.095Z,100131.97
2023-12-20T18:23:31.537Z,100127.44
2023-12-20T18:25:58.374Z,100113.22
2023-12-20T18:28:24.964Z,100109.50
2023-12-20T18:30:51.472Z,100116.56
2023-12-20T18:33:18.018Z,100117.41
2023-12-20T18:35:46.328Z,100112.88
2023-12-20T18:38:14.095Z,100114.53
2023-12-20T18:40:47.828Z,100112.53
2023-12-20T18:43:15.601Z,100104.50
2023-12-20T18:45:42.317Z,100104.34
2023-12-20T18:48:09.410Z,100086.41
2023-12-20T18:50:37.287Z,100088.94
2023-12-20T18:53:04.190Z,100072.69
2023-12-20T18:55:30.711Z,100069.16
2023-12-20T18:57:57.333Z,100066.34
2023-12-20T19:00:24.146Z,100064.50
2023-12-20T19:02:51.748Z,100058.13
2023-12-20T19:05:19.836Z,100053.59
2023-12-20T19:07:47.086Z,100055.28
2023-12-20T19:10:13.897Z,100042.72
2023-12-20T19:12:40.437Z,100049.72
2023-12-20T19:15:07.403Z,100037.34
2023-12-20T19:17:34.471Z,100030.16
2023-12-20T19:20:02.160Z,100031.81
2023-12-20T19:22:33.048Z,100028.97
2023-12-20T19:25:06.406Z,100022.78
2023-12-20T19:27:34.105Z,100023.47
2023-12-20T19:30:01.096Z,100010.06
2023-12-20T19:32:28.566Z,100006.34
2023-12-20T19:34:56.669Z,100005.34
2023-12-20T19:37:23.856Z,99989.25
2023-12-20T19:39:50.471Z,100003.53
2023-12-20T19:42:17.001Z,100002.50
2023-12-20T19:44:44.384Z,99996.31
2023-12-20T19:47:11.800Z,99986.44
2023-12-20T19:49:39.173Z,99980.03
2023-12-20T19:52:06.013Z,99972.00
2023-12-20T19:54:32.904Z,99974.53
2023-12-20T19:56:59.347Z,99962.97
2023-12-20T19:59:25.881Z,99946.72
2023-12-20T20:01:52.394Z,99938.66
2023-12-20T20:04:19.808Z,99935.16
2023-12-20T20:06:46.742Z,99928.81
2023-12-20T20:09:13.218Z,99923.25
2023-12-20T20:11:39.639Z,99933.97
2023-12-20T20:14:06.536Z,99924.09
2023-12-20T20:16:33.052Z,99908.88
2023-12-20T20:18:59.777Z,99911.56
2023-12-20T20:21:26.429Z,99907.03
2023-12-20T20:23:52.906Z,99907.84
2023-12-20T20:26:19.352Z,99899.66
2023-12-20T20:28:47.453Z,99895.13
2023-12-20T20:31:14.576Z,99896.78
2023-12-20T20:33:41.538Z,99897.59
2023-12-20T20:36:09.065Z,99889.56
2023-12-20T20:38:35.488Z,99879.69
2023-12-20T20:41:01.955Z,99887.56
2023-12-20T20:43:28.532Z,99888.38
2023-12-20T20:45:55.124Z,99885.53
2023-12-20T20:48:27.791Z,99881.00
2023-12-20T20:51:00.755Z,99886.38
2023-12-20T20:53:27.489Z,99890.72
2023-12-20T20:55:54.162Z,99886.22
2023-12-20T20:58:21.041Z,99886.22
2023-12-20T21:00:47.699Z,99873.63
2023-12-20T21:03:14.104Z,99865.59
2023-12-20T21:05:41.069Z,99868.09
2023-12-20T21:08:08.069Z,99862.91
2023-12-20T21:10:34.615Z,99855.53
2023-12-20T21:13:01.080Z,99852.84
2023-12-20T21:15:27.581Z,99850.81
2023-12-20T21:17:54.222Z,99846.31
2023-12-20T21:20:21.315Z,99846.31
2023-12-20T21:22:47.894Z,99844.47
2023-12-20T21:25:14.481Z,99843.44
2023-12-20T21:27:41.794Z,99829.03
2023-12-20T21:30:11.230Z,99822.69
2023-12-20T21:32:39.693Z,99821.66
2023-12-20T21:35:07.515Z,99802.75
2023-12-20T21:37:34.300Z,99795.34
2023-12-20T21:40:01.100Z,99791.66
2023-12-20T21:42:27.647Z,99788.81
2023-12-20T21:44:57.257Z,99774.22
2023-12-20T21:47:23.661Z,99788.44
2023-12-20T21:49:50.132Z,99782.06
2023-12-20T21:52:19.338Z,99777.34
2023-12-20T21:54:46.955Z,99761.09
2023-12-20T21:57:13.408Z,99765.44
2023-12-20T21:59:40.028Z,99767.09
2023-12-20T22:02:08.335Z,99768.59
2023-12-20T22:04:35.192Z,99766.75
2023-12-20T22:07:01.709Z,99765.53
2023-12-20T22:09:28.134Z,99769.25
2023-12-20T22:11:54.646Z,99784.97
2023-12-20T22:14:21.808Z,99782.28
2023-12-20T22:16:48.285Z,99788.31
2023-12-20T22:19:14.749Z,99800.69
2023-12-20T22:21:41.280Z,99795.16
2023-12-20T22:24:07.856Z,99786.97
2023-12-20T22:26:34.547Z,99795.63
2023-12-20T22:29:01.180Z,99796.50
2023-12-20T22:31:27.652Z,99794.63
2023-12-20T22:33:54.809Z,99792.78
2023-12-20T22:36:21.837Z,99785.56
2023-12-20T22:38:48.404Z,99782.06
2023-12-20T22:41:15.759Z,99791.75
2023-12-20T22:43:42.655Z,99784.56
2023-12-20T22:46:09.320Z,99782.72
2023-12-20T22:48:36.072Z,99777.81
2023-12-20T22:51:03.692Z,99780.66
2023-12-20T22:53:30.175Z,99771.41
2023-12-20T22:55:56.832Z,99765.22
2023-12-20T22:58:23.364Z,99748.13
2023-12-20T23:00:50.832Z,99758.66
2023-12-20T23:03:17.444Z,99752.31
2023-12-20T23:05:44.423Z,99743.22
2023-12-20T23:08:12.124Z,99741.38
2023-12-20T23:10:38.793Z,99746.56
2023-12-20T23:13:05.406Z,99740.19
2023-12-20T23:15:31.984Z,99732.13
2023-12-20T23:17:59.029Z,99735.63
2023-12-20T23:20:25.561Z,99715.88
2023-12-20T23:22:52.084Z,99730.09
2023-12-20T23:25:18.643Z,99724.75
2023-12-20T23:27:50.646Z,99720.03
2023-12-20T23:30:17.831Z,99720.69
2023-12-20T23:32:44.457Z,99707.06
2023-12-20T23:35:16.165Z,99708.72
2023-12-20T23:37:44.457Z,99713.94
2023-12-20T23:40:11.447Z,99700.34
2023-12-20T23:42:37.964Z,99713.75
2023-12-20T23:45:05.500Z,99702.81
2023-12-20T23:47:31.971Z,99698.09
2023-12-20T23:49:58.742Z,99700.63
2023-12-20T23:52:26.149Z,99706.81
2023-12-20T23:54:52.738Z,99694.88
2023-12-20T23:57:19.237Z,99679.59
2023-12-20T23:59:45.668Z,99688.47
